Vremea acum in Sângeorz Băi - Romania

Vrei sa afli care e starea vremii acum in Bistrita-Nasaud - Romania? Dorim sa iti furnizam starea vremii pentru Bistrita-Nasaud - Romania. Starea vremii Bistrita-Nasaud - Romania pentru astazi.

Vremea acum in Sângeorz Băi

Temperatura: 7.5 °C

Este:
Se simte ca: 7.3 °C
Innorat: 46 %
Precipitatii: 0 %
Presiune atmosferica: 1020 hPa
Umiditate: 81%
Vizibilitate: 10 km
Vantul bate din S cu 4 km/h

Evolutia vremii in Sângeorz Băi pe ore

Ora: 06:00
Temperatura: 6.1°C
Sansa de precipitatii: 0%
Ora Descriere Temp Se simte Precipitatii Umiditate Vant
00:00Senin6.8°6.1°0%83%ENE 5 KM/H
01:00Senin6.4°5.6°0%83%NE 5 KM/H
02:00Senin0%84%NE 5.8 KM/H
03:00Senin5.7°5.2°0%84%ENE 4.3 KM/H
04:00Senin5.4°5.4°0%85%ENE 3.2 KM/H
05:00Senin5.2°5.2°0%85%ESE 2.9 KM/H
06:006.1°5.6°0%82%SSE 4.3 KM/H
07:007.5°7.3°0%81%S 4 KM/H
08:00Senin8.9°8.9°0%77%WSW 1.4 KM/H
09:00Senin11.3°11.3°0%70%NW 2.9 KM/H
10:00Senin13.7°14.3°0%65%SW 4 KM/H
11:00Senin15.5°15.5°0%61%WSW 6.8 KM/H
12:00Senin17.2°17.2°0%59%W 9 KM/H
13:00Senin19.1°19.1°0%54%W 9.7 KM/H
14:00Senin20.7°20.7°0%48%W 11.5 KM/H
15:00Senin21.4°21.5°0%45%W 15.1 KM/H
16:00Senin21.3°21.3°0%47%W 18.7 KM/H
17:00Senin20.8°20.8°0%50%WNW 17.6 KM/H
18:00Senin20°20°0%56%W 15.1 KM/H
19:00Senin18.3°18.3°0%64%WNW 11.2 KM/H
20:00Senin15°15°0%71%W 2.5 KM/H
21:00Senin12.7°12.8°0%76%E 5 KM/H
22:00Senin11.4°10.7°0%77%E 7.6 KM/H
23:00Senin10.4°9.7°0%77%ENE 7.2 KM/H




tutorials